Time;durP1;ratioP1;P1;durP2;ratioP2;P2;SDS_P1;SDS_P2;PMS_P1;PMS_P2;Temp;Humidity;BMP_temperature;BMP_pressure;BME280_temperature;BME280_humidity;BME280_pressure;Samples;Min_cycle;Max_cycle;Signal;HPM_P1;HPM_P2
2023/10/03 00:00:28;;;;;;;12.07;3.28;;;;;;;17.56;86.60;101014.31;5060825;28;20070;-71
2023/10/03 00:03:04;;;;;;;13.30;2.50;;;;;;;17.59;86.33;101033.72;5079043;28;20048;-71
2023/10/03 00:05:31;;;;;;;9.35;2.50;;;;;;;17.61;86.11;101022.56;5084301;28;20012;-71
2023/10/03 00:07:58;;;;;;;15.05;3.13;;;;;;;17.61;85.92;101019.84;5077504;28;20380;-71
2023/10/03 00:10:25;;;;;;;13.00;2.30;;;;;;;17.64;85.84;101022.09;5033089;28;20029;-71
2023/10/03 00:12:51;;;;;;;14.75;2.67;;;;;;;17.64;85.82;101021.28;5073024;28;20067;-70
2023/10/03 00:15:24;;;;;;;14.10;2.53;;;;;;;17.57;86.00;101005.91;5091883;28;20032;-70
2023/10/03 00:17:50;;;;;;;16.23;2.60;;;;;;;17.64;85.71;101013.09;5090429;28;20039;-71
2023/10/03 00:20:16;;;;;;;13.13;2.65;;;;;;;17.64;85.57;101008.50;5093097;28;20028;-71
2023/10/03 00:22:48;;;;;;;11.82;2.60;;;;;;;17.68;85.41;101001.53;5093585;28;20059;-71
2023/10/03 00:25:18;;;;;;;9.25;2.40;;;;;;;17.66;85.21;101000.91;5077524;28;20001;-71
2023/10/03 00:27:51;;;;;;;16.42;2.50;;;;;;;17.67;85.27;100999.84;5094969;28;20013;-71
2023/10/03 00:30:25;;;;;;;10.63;2.22;;;;;;;17.63;85.40;101009.56;5077363;28;20032;-70
2023/10/03 00:32:52;;;;;;;8.93;2.15;;;;;;;17.67;85.17;101010.72;5062120;28;20475;-71
2023/10/03 00:35:20;;;;;;;11.63;2.20;;;;;;;17.59;85.01;100998.34;5075420;28;20056;-71
2023/10/03 00:37:50;;;;;;;15.75;2.47;;;;;;;17.62;85.05;101007.91;5077726;28;20016;-71
2023/10/03 00:42:57;;;;;;;12.52;2.28;;;;;;;17.63;84.71;100993.25;5077553;28;20038;-70
2023/10/03 00:45:24;;;;;;;13.60;2.10;;;;;;;17.60;84.58;100989.09;5074602;28;20031;-70
2023/10/03 00:47:51;;;;;;;11.80;2.33;;;;;;;17.58;84.53;100974.94;5059642;28;20104;-70
2023/10/03 00:50:19;;;;;;;16.73;2.50;;;;;;;17.58;84.67;100966.75;5061384;28;20016;-71
2023/10/03 00:52:49;;;;;;;12.10;2.53;;;;;;;17.63;85.39;100962.47;5093314;28;20016;-71
2023/10/03 00:55:15;;;;;;;12.48;2.63;;;;;;;17.58;86.12;100960.47;5058745;28;20113;-70
2023/10/03 00:57:43;;;;;;;14.70;2.50;;;;;;;17.54;86.65;100962.84;5063969;28;20025;-71
2023/10/03 01:00:16;;;;;;;19.08;2.78;;;;;;;17.49;87.41;100959.22;5086890;28;20076;-71
2023/10/03 01:02:50;;;;;;;13.00;2.22;;;;;;;17.46;88.04;100956.97;5074331;28;20082;-71
2023/10/03 01:05:16;;;;;;;17.75;2.40;;;;;;;17.42;88.63;100955.78;5092631;28;20056;-71
2023/10/03 01:07:44;;;;;;;14.30;2.75;;;;;;;17.32;89.80;100946.38;5068915;28;20111;-70
2023/10/03 01:10:12;;;;;;;9.18;2.20;;;;;;;17.29;90.64;100957.72;5078971;28;20052;-70
2023/10/03 01:12:39;;;;;;;13.25;2.40;;;;;;;17.21;91.27;100941.75;5070976;28;20052;-70
2023/10/03 01:15:22;;;;;;;10.82;2.25;;;;;;;17.17;91.74;100934.34;5095051;28;20035;-70
2023/10/03 01:17:58;;;;;;;10.43;2.83;;;;;;;17.05;92.27;100937.91;5078780;28;20024;-71
2023/10/03 01:20:24;;;;;;;13.77;2.20;;;;;;;16.90;92.58;100923.97;5095455;28;20059;-71
2023/10/03 01:22:54;;;;;;;17.30;2.40;;;;;;;16.91;92.82;100931.88;5061144;28;20037;-71
2023/10/03 01:25:20;;;;;;;13.68;2.40;;;;;;;16.86;93.16;100923.63;5093695;28;20012;-70
2023/10/03 01:27:46;;;;;;;13.30;2.22;;;;;;;16.82;93.13;100919.75;5059352;28;20024;-71
2023/10/03 01:30:12;;;;;;;13.55;1.88;;;;;;;16.68;93.51;100900.09;5094900;28;20032;-71
2023/10/03 01:32:48;;;;;;;12.10;2.22;;;;;;;16.77;94.00;100908.75;5095326;28;20024;-71
2023/10/03 01:35:14;;;;;;;16.67;2.08;;;;;;;16.68;94.11;100897.38;5095213;28;20009;-70
2023/10/03 01:37:40;;;;;;;15.40;2.38;;;;;;;16.70;94.32;100893.59;5061503;28;20020;-69
2023/10/03 01:40:13;;;;;;;12.50;2.17;;;;;;;16.67;94.57;100878.59;5095296;28;20017;-70
2023/10/03 01:42:45;;;;;;;18.05;2.30;;;;;;;16.61;94.54;100876.81;5078087;28;20029;-71
2023/10/03 01:45:12;;;;;;;16.70;2.50;;;;;;;16.59;94.92;100881.69;5094641;28;20008;-71
2023/10/03 01:47:40;;;;;;;13.05;1.85;;;;;;;16.50;94.85;100864.91;5079686;28;20036;-71
2023/10/03 01:50:06;;;;;;;12.15;2.58;;;;;;;16.58;95.21;100872.69;5048366;28;20021;-71
2023/10/03 01:52:32;;;;;;;10.63;2.20;;;;;;;16.58;95.46;100866.44;5080875;28;20017;-71
2023/10/03 01:54:58;;;;;;;15.35;2.15;;;;;;;16.51;95.43;100844.81;5097948;28;20077;-70
2023/10/03 01:57:24;;;;;;;12.43;2.10;;;;;;;16.60;95.79;100867.03;5093668;28;20029;-71
2023/10/03 01:59:50;;;;;;;18.58;2.72;;;;;;;16.56;96.29;100863.16;5079451;28;20057;-70
2023/10/03 02:02:16;;;;;;;13.38;2.53;;;;;;;16.50;96.96;100854.03;5079535;28;20048;-71
2023/10/03 02:04:41;;;;;;;10.88;2.05;;;;;;;16.45;97.42;100851.19;5097429;28;20012;-71
2023/10/03 02:07:07;;;;;;;11.13;2.25;;;;;;;16.41;97.46;100847.31;5069301;28;20048;-71
2023/10/03 02:09:33;;;;;;;12.15;2.45;;;;;;;16.32;97.61;100841.41;5048099;28;20044;-71
2023/10/03 02:11:59;;;;;;;11.50;2.08;;;;;;;16.26;97.74;100834.22;5092071;28;20055;-71
2023/10/03 02:14:25;;;;;;;13.90;2.25;;;;;;;16.20;97.89;100816.97;5056909;28;20036;-70
2023/10/03 02:16:51;;;;;;;12.52;1.90;;;;;;;16.27;97.92;100816.03;5077963;28;20097;-71
2023/10/03 02:19:17;;;;;;;16.67;2.30;;;;;;;16.24;98.00;100803.75;5063890;28;20036;-70
2023/10/03 02:21:42;;;;;;;13.57;2.70;;;;;;;16.18;97.77;100785.69;5058836;28;20151;-71
2023/10/03 02:24:08;;;;;;;15.95;2.47;;;;;;;16.19;98.30;100800.91;5094812;28;20036;-70
2023/10/03 02:26:33;;;;;;;15.10;2.08;;;;;;;16.26;97.89;100798.94;5063510;28;20020;-71
2023/10/03 02:29:00;;;;;;;11.38;2.47;;;;;;;16.12;98.35;100782.03;5079941;28;20561;-70
2023/10/03 02:31:25;;;;;;;12.20;2.33;;;;;;;16.17;98.30;100793.00;5080005;28;20023;-71
2023/10/03 02:33:51;;;;;;;13.05;2.25;;;;;;;16.14;98.47;100790.78;5097478;28;20024;-70
2023/10/03 02:36:16;;;;;;;15.30;2.03;;;;;;;16.17;98.24;100784.06;5062282;28;20027;-70
2023/10/03 02:38:42;;;;;;;11.82;2.33;;;;;;;16.19;98.27;100793.63;5078663;28;20029;-70
2023/10/03 02:41:07;;;;;;;10.77;2.40;;;;;;;16.18;98.14;100794.66;5079350;28;20024;-70
2023/10/03 02:43:34;;;;;;;12.13;1.77;;;;;;;16.10;98.19;100786.06;5062629;28;20032;-70
2023/10/03 02:46:00;;;;;;;11.65;2.30;;;;;;;16.06;97.48;100774.84;5097089;28;20038;-70
2023/10/03 02:48:26;;;;;;;8.07;1.90;;;;;;;16.01;96.61;100779.31;5097046;28;20004;-71
2023/10/03 02:50:52;;;;;;;7.72;1.90;;;;;;;15.89;96.00;100754.88;5096935;28;20036;-71
2023/10/03 02:53:19;;;;;;;7.38;1.58;;;;;;;15.94;95.38;100747.69;5097067;28;20128;-71
2023/10/03 02:55:49;;;;;;;8.20;1.85;;;;;;;15.91;94.75;100745.47;5080001;28;20051;-70
2023/10/03 02:58:17;;;;;;;7.90;1.60;;;;;;;15.83;94.27;100734.16;5079210;28;20095;-70
2023/10/03 03:00:46;;;;;;;5.93;1.48;;;;;;;15.63;93.99;100719.00;5096986;28;20036;-70
2023/10/03 03:03:12;;;;;;;9.25;1.65;;;;;;;15.68;92.92;100737.31;5096541;28;20036;-70
2023/10/03 03:05:38;;;;;;;5.78;1.90;;;;;;;15.67;92.53;100725.63;5096964;28;20051;-71
2023/10/03 03:10:57;;;;;;;6.72;1.80;;;;;;;15.46;91.81;100699.88;5096535;28;20028;-71
2023/10/03 03:13:35;;;;;;;7.70;1.90;;;;;;;15.55;91.04;100704.94;5096096;28;20024;-71
2023/10/03 03:16:03;;;;;;;4.70;1.55;;;;;;;15.59;90.85;100706.94;5081442;28;20134;-71
2023/10/03 03:18:40;;;;;;;8.05;1.75;;;;;;;15.47;90.76;100684.44;5057849;28;20034;-71
2023/10/03 03:21:13;;;;;;;6.70;1.73;;;;;;;15.56;90.64;100699.28;5079287;28;20032;-70
2023/10/03 03:23:43;;;;;;;5.80;1.45;;;;;;;15.51;90.73;100682.91;5077226;28;20035;-71
2023/10/03 03:26:20;;;;;;;7.00;1.70;;;;;;;15.54;90.95;100690.56;5079192;28;20139;-70
2023/10/03 03:28:50;;;;;;;7.10;1.80;;;;;;;15.42;91.38;100660.72;5096094;28;20043;-70
2023/10/03 03:31:25;;;;;;;7.32;1.85;;;;;;;15.54;91.98;100676.19;5078787;28;20039;-70
2023/10/03 03:34:00;;;;;;;8.93;2.00;;;;;;;15.52;92.37;100677.22;5079015;28;20064;-70
2023/10/03 03:36:34;;;;;;;6.55;1.83;;;;;;;15.56;92.74;100679.47;5079362;28;20024;-70
2023/10/03 03:39:03;;;;;;;11.23;1.70;;;;;;;15.57;92.89;100673.00;5079166;28;20013;-71
2023/10/03 03:41:29;;;;;;;9.35;1.83;;;;;;;15.58;93.43;100669.22;5078865;28;20102;-70
2023/10/03 03:43:54;;;;;;;8.77;2.13;;;;;;;15.59;93.90;100668.16;5078883;28;20633;-70
2023/10/03 03:46:20;;;;;;;6.18;2.05;;;;;;;15.63;94.44;100674.75;5077893;28;20031;-70
2023/10/03 03:48:46;;;;;;;9.65;1.83;;;;;;;15.65;95.14;100669.94;5070748;28;20032;-70
2023/10/03 03:51:14;;;;;;;9.00;1.67;;;;;;;15.68;95.00;100664.88;5079173;28;20062;-70
2023/10/03 03:53:41;;;;;;;6.32;1.75;;;;;;;15.68;95.57;100662.19;5093747;28;20027;-71
2023/10/03 03:56:12;;;;;;;7.13;1.52;;;;;;;15.56;95.89;100626.06;5076159;28;20107;-70
2023/10/03 03:58:40;;;;;;;7.45;1.80;;;;;;;15.61;96.08;100633.50;5071320;28;20040;-71
2023/10/03 04:01:14;;;;;;;8.38;2.13;;;;;;;15.66;96.44;100641.72;5078168;28;20785;-70
2023/10/03 04:03:44;;;;;;;8.55;2.03;;;;;;;15.66;96.91;100648.03;5074868;28;20024;-71
2023/10/03 04:06:10;;;;;;;9.35;2.00;;;;;;;15.64;96.47;100638.44;5075064;28;20063;-74
2023/10/03 04:08:36;;;;;;;7.68;1.80;;;;;;;15.52;96.70;100609.44;5093567;28;20245;-72
2023/10/03 04:11:07;;;;;;;5.95;1.83;;;;;;;15.44;97.08;100600.84;5061261;28;20025;-72
2023/10/03 04:13:38;;;;;;;7.38;1.80;;;;;;;15.44;97.11;100612.50;5071641;28;20028;-74
2023/10/03 04:16:08;;;;;;;8.48;1.83;;;;;;;15.44;97.33;100614.41;5077639;28;20096;-71
2023/10/03 04:18:34;;;;;;;6.28;1.80;;;;;;;15.31;97.36;100601.91;5069235;28;20020;-71
2023/10/03 04:21:02;;;;;;;4.07;1.60;;;;;;;15.31;97.89;100601.91;5076832;28;20036;-70
2023/10/03 04:23:27;;;;;;;3.60;1.50;;;;;;;15.26;97.60;100604.47;5095914;28;20019;-70
2023/10/03 04:25:54;;;;;;;5.13;1.60;;;;;;;15.17;97.21;100587.75;5093911;28;20017;-70
2023/10/03 04:28:19;;;;;;;8.98;1.85;;;;;;;14.96;97.60;100583.72;5070645;28;20086;-71
2023/10/03 04:30:45;;;;;;;6.47;1.58;;;;;;;15.04;97.63;100591.50;5075271;28;20123;-71
2023/10/03 04:33:11;;;;;;;4.65;1.75;;;;;;;15.01;97.84;100596.56;5052663;28;20048;-70
2023/10/03 04:35:36;;;;;;;4.63;1.70;;;;;;;14.93;98.01;100572.50;5086979;28;20033;-69
2023/10/03 04:38:04;;;;;;;3.60;1.65;;;;;;;14.94;98.04;100569.59;5075500;28;20059;-70
2023/10/03 04:40:36;;;;;;;5.20;1.70;;;;;;;14.89;97.96;100555.91;5092163;28;20032;-70
2023/10/03 04:43:11;;;;;;;6.97;1.85;;;;;;;14.81;98.12;100531.88;5093909;28;20024;-70
2023/10/03 04:45:39;;;;;;;7.22;2.17;;;;;;;14.77;98.35;100542.34;5093789;28;20042;-71
2023/10/03 04:48:05;;;;;;;9.45;2.05;;;;;;;14.69;98.31;100520.19;5073299;28;20051;-71
2023/10/03 04:50:31;;;;;;;5.68;1.75;;;;;;;14.74;98.29;100525.75;5074091;28;20011;-71
2023/10/03 04:52:56;;;;;;;6.47;1.73;;;;;;;14.40;98.66;100481.25;5074525;28;20036;-71
2023/10/03 04:55:24;;;;;;;4.28;1.70;;;;;;;14.60;98.60;100514.28;5083411;28;20059;-70
2023/10/03 04:57:51;;;;;;;6.15;1.80;;;;;;;14.69;98.43;100534.56;5047893;28;20028;-72
2023/10/03 05:00:19;;;;;;;7.40;1.98;;;;;;;14.68;99.11;100534.81;5087055;28;20031;-72
2023/10/03 05:02:49;;;;;;;4.88;2.00;;;;;;;14.65;98.85;100535.28;5077819;28;20024;-73
2023/10/03 05:05:14;;;;;;;4.93;1.65;;;;;;;14.61;99.20;100520.56;5074002;28;20052;-72
2023/10/03 05:07:40;;;;;;;5.25;1.80;;;;;;;14.46;99.66;100497.41;5066268;28;20071;-71
2023/10/03 05:10:06;;;;;;;6.00;1.80;;;;;;;14.50;99.58;100497.75;5081277;28;20094;-74
2023/10/03 05:12:32;;;;;;;4.75;1.63;;;;;;;14.41;99.55;100477.50;5069750;28;20012;-74
2023/10/03 05:14:58;;;;;;;9.48;1.88;;;;;;;14.38;99.59;100459.84;5103216;28;20129;-73
2023/10/03 05:17:26;;;;;;;5.72;1.88;;;;;;;14.34;99.18;100453.25;5067594;28;20032;-73
2023/10/03 05:19:53;;;;;;;5.05;1.70;;;;;;;14.33;99.43;100448.88;5073133;28;20035;-72
2023/10/03 05:22:18;;;;;;;7.47;2.00;;;;;;;14.24;98.95;100436.75;5059176;28;20086;-72
2023/10/03 05:24:43;;;;;;;6.75;1.95;;;;;;;14.32;99.33;100444.53;5088141;28;20024;-72
2023/10/03 05:27:09;;;;;;;7.82;1.88;;;;;;;14.28;99.35;100440.66;5061022;28;20028;-72
2023/10/03 05:29:34;;;;;;;4.68;1.60;;;;;;;14.27;99.17;100431.72;5049605;28;20028;-71
2023/10/03 05:32:00;;;;;;;7.10;2.00;;;;;;;14.28;99.07;100429.81;5080703;28;20043;-71
2023/10/03 05:34:26;;;;;;;6.55;1.85;;;;;;;14.27;99.28;100425.44;5096868;28;20029;-72
2023/10/03 05:36:52;;;;;;;9.35;1.85;;;;;;;14.25;99.33;100424.88;5062508;28;20039;-71
2023/10/03 05:39:18;;;;;;;6.60;1.80;;;;;;;14.10;99.57;100387.41;5074296;28;20032;-70
2023/10/03 05:41:44;;;;;;;5.00;1.58;;;;;;;14.27;99.43;100417.31;5100675;28;20032;-72
2023/10/03 05:44:11;;;;;;;6.88;2.38;;;;;;;14.18;99.60;100414.16;5063135;28;20063;-71
2023/10/03 05:46:38;;;;;;;10.25;2.17;;;;;;;14.20;99.77;100406.59;5063187;28;20032;-72
2023/10/03 05:49:04;;;;;;;7.65;2.25;;;;;;;14.21;99.76;100402.88;5048682;28;20033;-72
2023/10/03 05:51:29;;;;;;;8.55;2.15;;;;;;;14.13;99.60;100394.25;5062363;28;20067;-71
2023/10/03 05:53:55;;;;;;;7.72;2.30;;;;;;;14.10;99.10;100399.09;5030573;28;20032;-71
2023/10/03 05:56:20;;;;;;;7.20;2.20;;;;;;;13.99;99.63;100397.16;5079551;28;20055;-71
2023/10/03 05:58:45;;;;;;;9.70;2.38;;;;;;;14.06;99.20;100399.78;5069900;28;20162;-71
2023/10/03 06:01:12;;;;;;;4.65;1.60;;;;;;;13.81;100.00;100402.66;5068054;28;20042;-72
2023/10/03 06:03:37;;;;;;;7.93;2.17;;;;;;;13.68;100.00;100381.22;5069306;28;20118;-72
2023/10/03 06:06:03;;;;;;;7.43;2.35;;;;;;;13.91;99.33;100400.22;5085618;28;20519;-71
2023/10/03 06:08:32;;;;;;;6.32;2.10;;;;;;;13.98;99.18;100405.53;5084377;28;20024;-71
2023/10/03 06:11:03;;;;;;;6.35;2.25;;;;;;;14.04;99.42;100408.13;5085838;28;20024;-71
2023/10/03 06:13:28;;;;;;;4.65;2.00;;;;;;;13.88;99.74;100389.84;5088282;28;20028;-71
2023/10/03 06:15:54;;;;;;;7.53;1.83;;;;;;;13.95;98.86;100390.56;5072357;28;20036;-71
2023/10/03 06:18:20;;;;;;;7.60;1.90;;;;;;;14.13;98.46;100418.59;5071003;28;20047;-71
2023/10/03 06:20:48;;;;;;;9.82;2.05;;;;;;;13.94;99.38;100393.50;5084354;28;20040;-72
2023/10/03 06:23:13;;;;;;;6.57;1.83;;;;;;;14.12;98.91;100412.38;5072658;28;20024;-71
2023/10/03 06:25:39;;;;;;;6.50;2.20;;;;;;;14.08;99.00;100414.72;5105630;28;20498;-71
2023/10/03 06:28:04;;;;;;;7.72;1.90;;;;;;;14.15;98.98;100420.03;5100290;28;20364;-70
2023/10/03 06:30:30;;;;;;;5.32;1.67;;;;;;;14.21;98.83;100429.94;5043352;28;20044;-70
2023/10/03 06:32:55;;;;;;;7.32;2.03;;;;;;;14.24;98.58;100437.59;5060636;28;20082;-71
2023/10/03 06:35:20;;;;;;;8.63;1.98;;;;;;;14.22;98.98;100430.75;5048747;28;20467;-71
2023/10/03 06:37:47;;;;;;;5.25;1.92;;;;;;;14.23;98.80;100435.09;5080366;28;20032;-70
2023/10/03 06:40:16;;;;;;;8.20;1.70;;;;;;;14.21;99.22;100439.94;5063644;28;20028;-70
2023/10/03 06:42:41;;;;;;;6.53;2.00;;;;;;;14.13;99.41;100432.13;5063458;28;20448;-70
2023/10/03 06:45:11;;;;;;;9.52;2.38;;;;;;;13.73;100.00;100375.94;5062852;28;20016;-71
2023/10/03 06:47:38;;;;;;;3.85;1.98;;;;;;;13.94;100.00;100410.56;5062610;28;20057;-71
2023/10/03 06:50:05;;;;;;;8.63;2.42;;;;;;;13.86;100.00;100389.25;5062660;28;20065;-70
2023/10/03 06:52:32;;;;;;;6.25;2.15;;;;;;;13.52;100.00;100377.28;5078117;28;20056;-70
2023/10/03 06:54:58;;;;;;;5.18;2.13;;;;;;;13.43;100.00;100365.13;5061852;28;20036;-69
2023/10/03 06:57:23;;;;;;;7.10;2.05;;;;;;;13.39;100.00;100372.88;5058752;28;20043;-70
2023/10/03 06:59:49;;;;;;;7.70;2.00;;;;;;;13.39;100.00;100372.88;5095702;28;20036;-71
2023/10/03 07:02:14;;;;;;;9.13;2.20;;;;;;;13.44;100.00;100364.06;5080216;28;20036;-69
2023/10/03 07:04:40;;;;;;;5.75;1.90;;;;;;;13.42;100.00;100377.81;5075670;28;20028;-70
2023/10/03 07:07:07;;;;;;;8.45;1.98;;;;;;;13.26;100.00;100373.84;5078227;28;20056;-69
2023/10/03 07:09:32;;;;;;;4.25;2.03;;;;;;;13.51;100.00;100395.38;5075459;28;20528;-70
2023/10/03 07:11:58;;;;;;;7.88;2.17;;;;;;;13.61;100.00;100389.41;5081392;28;20024;-70
2023/10/03 07:14:24;;;;;;;5.97;2.08;;;;;;;13.34;100.00;100387.06;5080373;28;20071;-70
2023/10/03 07:16:49;;;;;;;8.30;2.40;;;;;;;13.40;100.00;100388.84;5080712;28;20033;-71
2023/10/03 07:19:15;;;;;;;7.13;1.98;;;;;;;13.56;100.00;100383.88;5096786;28;20058;-70
2023/10/03 07:21:43;;;;;;;6.68;2.15;;;;;;;13.41;100.00;100376.19;5077611;28;20029;-70
2023/10/03 07:24:09;;;;;;;6.97;2.20;;;;;;;13.51;100.00;100375.59;5094248;28;20021;-70
2023/10/03 07:26:35;;;;;;;7.53;2.10;;;;;;;13.25;100.00;100352.47;5078744;28;20552;-70
2023/10/03 07:29:02;;;;;;;6.35;2.40;;;;;;;13.10;100.00;100337.44;5080052;28;20370;-70
2023/10/03 07:31:27;;;;;;;6.65;1.95;;;;;;;12.78;100.00;100307.09;5047467;28;20039;-71
2023/10/03 07:33:54;;;;;;;7.78;2.00;;;;;;;12.83;100.00;100296.44;5080730;28;20033;-71
2023/10/03 07:36:20;;;;;;;5.03;1.83;;;;;;;12.69;100.00;100292.25;5062995;28;20028;-70
2023/10/03 07:38:45;;;;;;;6.45;1.98;;;;;;;12.79;100.00;100292.56;5079960;28;20032;-70
2023/10/03 07:41:16;;;;;;;6.07;1.90;;;;;;;12.70;100.00;100283.91;5076212;28;20182;-70
2023/10/03 07:43:48;;;;;;;5.40;2.08;;;;;;;12.73;100.00;100277.25;5080957;28;20012;-70
2023/10/03 07:46:25;;;;;;;8.35;2.50;;;;;;;12.72;100.00;100288.28;5081725;28;20028;-71
2023/10/03 07:48:53;;;;;;;4.32;2.17;;;;;;;12.76;100.00;100292.19;5062187;28;20122;-70
2023/10/03 07:51:20;;;;;;;5.22;2.10;;;;;;;12.74;100.00;100270.78;5079719;28;20098;-70
2023/10/03 07:53:52;;;;;;;6.00;2.47;;;;;;;12.35;100.00;100256.72;5079436;28;20029;-71
2023/10/03 07:56:25;;;;;;;9.15;2.65;;;;;;;12.37;100.00;100226.81;5079285;28;20069;-71
2023/10/03 07:58:54;;;;;;;5.78;2.30;;;;;;;12.27;100.00;100211.16;5061721;28;20028;-71
2023/10/03 08:01:27;;;;;;;6.88;2.50;;;;;;;11.86;100.00;100164.09;5061663;28;20040;-70
2023/10/03 08:03:54;;;;;;;7.35;2.70;;;;;;;11.64;100.00;100166.34;5078854;28;20028;-70
2023/10/03 08:06:23;;;;;;;7.85;2.97;;;;;;;12.36;100.00;100207.09;5062560;28;20091;-71
2023/10/03 08:08:48;;;;;;;5.88;2.83;;;;;;;12.22;100.00;100198.34;5079719;28;20046;-70
2023/10/03 08:11:14;;;;;;;6.72;2.30;;;;;;;11.94;100.00;100154.88;5079005;28;20033;-70
2023/10/03 08:13:42;;;;;;;9.48;2.90;;;;;;;12.02;100.00;100175.31;5045053;28;20031;-70
2023/10/03 08:16:08;;;;;;;6.65;2.75;;;;;;;12.38;100.00;100209.56;5079273;28;20139;-71
2023/10/03 08:18:39;;;;;;;7.82;2.90;;;;;;;11.94;100.00;100165.66;5077663;28;20179;-70
2023/10/03 08:21:05;;;;;;;8.02;3.22;;;;;;;12.05;100.00;100154.13;5078814;28;20021;-70
2023/10/03 08:23:37;;;;;;;9.02;3.00;;;;;;;12.43;100.00;100170.06;5060274;28;20058;-70
2023/10/03 08:26:03;;;;;;;7.22;3.17;;;;;;;12.44;100.00;100195.19;5060512;28;20051;-71
2023/10/03 08:28:31;;;;;;;7.88;3.10;;;;;;;12.55;100.00;100180.09;5080165;28;20028;-70
2023/10/03 08:31:05;;;;;;;7.75;2.83;;;;;;;11.94;100.00;100128.75;5058572;28;20059;-69
2023/10/03 08:33:36;;;;;;;5.80;2.67;;;;;;;11.85;100.00;100083.44;5060884;28;20060;-70
2023/10/03 08:36:02;;;;;;;4.43;2.53;;;;;;;12.15;100.00;100096.97;5062823;28;20037;-70
2023/10/03 08:38:27;;;;;;;5.85;2.50;;;;;;;12.59;100.00;100130.84;5062113;28;20081;-70
2023/10/03 08:40:55;;;;;;;5.53;2.50;;;;;;;12.59;100.00;100124.63;5062429;28;20119;-71
2023/10/03 08:43:25;;;;;;;5.75;2.58;;;;;;;12.55;100.00;100112.63;5057082;28;20017;-70
2023/10/03 08:45:56;;;;;;;6.85;2.38;;;;;;;12.21;100.00;100082.56;5065999;28;20107;-71
2023/10/03 08:48:26;;;;;;;7.32;2.53;;;;;;;12.02;100.00;100078.25;5084597;28;20017;-70
2023/10/03 08:50:57;;;;;;;5.60;2.70;;;;;;;12.09;100.00;100073.63;5077450;28;20039;-70
2023/10/03 08:53:27;;;;;;;7.10;2.90;;;;;;;12.13;100.00;100072.94;5059203;28;20103;-71
2023/10/03 08:56:02;;;;;;;6.05;2.40;;;;;;;12.28;100.00;100053.63;5059705;28;20054;-70
2023/10/03 08:58:28;;;;;;;4.57;2.55;;;;;;;12.53;100.00;100068.88;5063351;28;20052;-70
2023/10/03 09:00:58;;;;;;;6.28;2.60;;;;;;;12.57;100.00;100064.66;5062829;28;20043;-70
2023/10/03 09:03:25;;;;;;;5.97;2.65;;;;;;;12.41;100.00;100052.63;5081132;28;20059;-70
2023/10/03 09:05:50;;;;;;;9.88;2.97;;;;;;;12.35;100.00;100050.84;5081115;28;20021;-70
2023/10/03 09:08:16;;;;;;;7.53;2.97;;;;;;;12.59;100.00;100051.75;5079773;28;20047;-70
2023/10/03 09:10:55;;;;;;;3.38;2.42;;;;;;;12.41;100.00;100063.41;5063574;28;20128;-70
2023/10/03 09:13:23;;;;;;;5.28;2.67;;;;;;;12.38;100.00;100045.84;5084241;28;20021;-70
2023/10/03 09:15:51;;;;;;;6.05;2.90;;;;;;;12.33;100.00;100037.59;5085450;28;20025;-70
2023/10/03 09:18:21;;;;;;;6.70;2.60;;;;;;;12.45;100.00;100033.06;5084781;28;20072;-69
2023/10/03 09:20:49;;;;;;;5.00;2.65;;;;;;;12.41;100.00;100025.66;5101210;28;20091;-69
2023/10/03 09:23:17;;;;;;;5.15;2.58;;;;;;;12.37;100.00;100013.69;5067739;28;20037;-69
2023/10/03 09:25:48;;;;;;;5.50;2.80;;;;;;;12.44;100.00;100003.59;5068756;28;20021;-69
2023/10/03 09:28:14;;;;;;;7.97;2.97;;;;;;;12.39;100.00;99992.69;5067798;28;20021;-69
2023/10/03 09:30:40;;;;;;;7.55;2.92;;;;;;;12.52;100.00;99992.50;5086466;28;20096;-70
2023/10/03 09:33:12;;;;;;;6.20;2.95;;;;;;;12.51;100.00;99992.72;5086210;28;20029;-69
2023/10/03 09:35:41;;;;;;;6.55;3.05;;;;;;;12.66;100.00;99969.63;5084383;28;20391;-70
2023/10/03 09:38:17;;;;;;;5.85;3.10;;;;;;;12.51;100.00;99963.03;5062641;28;20029;-69
2023/10/03 09:40:51;;;;;;;6.55;3.28;;;;;;;12.52;100.00;99952.00;5081604;28;20054;-69
2023/10/03 09:43:27;;;;;;;6.00;3.22;;;;;;;12.59;100.00;99955.41;5066743;28;20028;-70
2023/10/03 09:45:56;;;;;;;5.97;3.05;;;;;;;12.54;100.00;99954.47;5067472;28;20176;-70
2023/10/03 09:48:24;;;;;;;5.57;2.92;;;;;;;12.42;100.00;99928.31;5085596;28;20035;-70
2023/10/03 09:50:53;;;;;;;5.72;2.95;;;;;;;12.55;100.00;99940.75;5086128;28;20039;-69
2023/10/03 09:53:28;;;;;;;5.82;2.75;;;;;;;12.77;100.00;99932.06;5086402;28;20025;-70
2023/10/03 09:55:56;;;;;;;5.10;2.80;;;;;;;12.96;100.00;99933.59;5084620;28;20035;-71
2023/10/03 09:58:31;;;;;;;5.60;2.85;;;;;;;12.73;100.00;99928.19;5067798;28;20020;-71
2023/10/03 10:00:57;;;;;;;8.15;2.97;;;;;;;12.67;100.00;99919.97;5066578;28;20029;-71
2023/10/03 10:03:33;;;;;;;6.05;2.83;;;;;;;12.62;100.00;99922.56;5064655;28;20044;-70
2023/10/03 10:06:28;;;;;;;8.38;3.10;;;;;;;12.51;100.00;99914.44;5064854;28;20075;-71
2023/10/03 10:09:08;;;;;;;6.05;2.85;;;;;;;12.40;100.00;99905.31;5078128;28;20044;-70
2023/10/03 10:12:11;;;;;;;5.60;2.92;;;;;;;12.59;100.00;99914.13;5072269;28;20024;-72
2023/10/03 10:17:49;;;;;;;5.60;3.03;;;;;;;12.54;100.00;99892.41;5082002;28;20033;-71
2023/10/03 10:20:24;;;;;;;5.88;3.00;;;;;;;12.39;100.00;99898.28;5063391;28;20020;-71
2023/10/03 10:22:59;;;;;;;6.20;2.88;;;;;;;12.69;100.00;99882.78;5062741;28;20031;-71
2023/10/03 10:25:41;;;;;;;7.28;3.28;;;;;;;12.73;100.00;99883.13;5062133;28;20035;-70
2023/10/03 10:28:12;;;;;;;5.78;3.00;;;;;;;12.81;100.00;99890.84;5096272;28;20097;-71
2023/10/03 10:30:44;;;;;;;7.05;2.72;;;;;;;12.77;100.00;99888.88;5062132;28;20040;-71
2023/10/03 10:33:16;;;;;;;5.80;2.78;;;;;;;12.60;100.00;99897.69;5057682;28;20407;-71
2023/10/03 10:35:56;;;;;;;5.38;3.00;;;;;;;12.50;100.00;99892.06;5061374;28;20051;-71
2023/10/03 10:38:52;;;;;;;4.22;2.70;;;;;;;12.53;100.00;99882.66;5079379;28;20021;-71
2023/10/03 10:41:18;;;;;;;;;;;;;;;12.53;100.00;99893.47;5061025;28;20053;-71
2023/10/03 10:44:08;;;;;;;5.03;2.42;;;;;;;12.64;100.00;99889.94;5095037;28;19916;-71
2023/10/03 10:46:45;;;;;;;5.50;2.55;;;;;;;12.49;100.00;99876.09;5061319;28;20028;-71
2023/10/03 10:49:36;;;;;;;6.10;3.08;;;;;;;12.40;100.00;99876.44;5061947;28;20391;-71
2023/10/03 10:52:06;;;;;;;5.78;2.60;;;;;;;12.41;100.00;99869.16;5061275;28;20244;-71
2023/10/03 10:54:33;;;;;;;4.75;2.70;;;;;;;12.59;100.00;99876.34;5061804;28;20028;-71
2023/10/03 10:57:03;;;;;;;5.53;2.40;;;;;;;12.75;100.00;99882.88;5061973;28;20066;-70
2023/10/03 10:59:35;;;;;;;5.85;3.17;;;;;;;12.63;100.00;99861.31;5079774;28;20448;-70
2023/10/03 11:02:01;;;;;;;5.57;2.60;;;;;;;12.76;100.00;99877.25;5061952;28;20078;-70
2023/10/03 11:04:28;;;;;;;5.20;2.65;;;;;;;12.43;100.00;99875.16;5061501;28;20024;-70
2023/10/03 11:06:54;;;;;;;4.53;2.42;;;;;;;12.48;100.00;99880.66;5079098;28;20079;-70
2023/10/03 11:09:23;;;;;;;3.85;2.70;;;;;;;12.48;100.00;99875.25;5071192;28;20025;-69
2023/10/03 11:11:52;;;;;;;3.88;2.22;;;;;;;12.63;100.00;99870.22;5082765;28;20052;-70
2023/10/03 11:14:26;;;;;;;4.38;2.30;;;;;;;12.59;100.00;99866.38;5059966;28;20031;-70
2023/10/03 11:16:51;;;;;;;5.03;2.28;;;;;;;12.64;100.00;99874.56;5079363;28;20032;-70
2023/10/03 11:19:17;;;;;;;3.90;2.13;;;;;;;12.72;100.00;99848.28;5061436;28;20376;-70
2023/10/03 11:21:43;;;;;;;5.30;2.05;;;;;;;12.76;100.00;99857.56;5062862;28;20029;-70
2023/10/03 11:24:17;;;;;;;3.58;2.03;;;;;;;12.51;100.00;99860.50;5064513;28;20032;-70
2023/10/03 11:26:50;;;;;;;4.75;2.30;;;;;;;12.74;100.00;99852.38;5064750;28;20025;-70
2023/10/03 11:29:51;;;;;;;3.80;1.80;;;;;;;12.81;100.00;99854.94;5064104;28;20081;-70
2023/10/03 11:32:24;;;;;;;3.30;1.80;;;;;;;12.78;100.00;99853.56;5082365;28;20036;-70
2023/10/03 11:34:52;;;;;;;4.20;1.98;;;;;;;12.86;100.00;99863.16;5064719;28;20028;-70
2023/10/03 11:37:41;;;;;;;3.55;2.00;;;;;;;13.00;100.00;99859.13;5083485;28;20024;-70